Latest Weather Observations for Coen Airport

IDQ60801

Issued at 5:32 pm EST Tuesday 17 October 2017 (issued every 30 minutes, with the page automatically refreshed every 10 minutes)

About weather observations | Map of weather stations | Latest weather observations for QLD | Other Formats
Station Details ID: 027073 Name: COEN AIRPORT Lat: -13.76 Lon: 143.12 Height: 159.3 m
Data from the previous 72 hours. | See also: Recent months at Coen Airport
Date/Time
EST
Temp
°C
App
Temp
°C
Dew
Point
°C
Rel
Hum
%
Delta-T
°C
Wind Press
QNH
hPa
Press
MSL
hPa
Rain since
9am
mm
Dir  Spd
km/h
Gust
km/h
Spd
kts
Gust
kts
17/05:30pm 24.6 25.4 21.3 82 2.2 SE 19 28 10 15 1007.4 1006.4 8.0
17/05:00pm 23.8 22.8 21.3 86 1.7 SE 28 39 15 21 1007.1 1006.1 8.0
17/04:30pm 23.8 25.2 22.8 94 0.7 SSE 20 28 11 15 1007.3 1006.3 6.2
17/04:00pm 23.5 22.2 20.6 84 1.9 WSW 28 44 15 24 1007.4 1006.4 1.4
17/03:59pm 24.0 23.0 20.5 81 2.3 WSW 26 44 14 24 1007.5 1006.5 0.2
17/03:30pm 29.0 30.2 19.0 54 6.5 NE 11 19 6 10 1006.4 1005.4 0.0
17/03:00pm 29.7 30.6 18.5 51 7.3 E 11 19 6 10 1006.6 1005.6 0.0
17/02:30pm 30.7 31.9 19.1 50 7.6 SSE 11 19 6 10 1007.0 1006.0 0.0
17/02:00pm 29.1 29.9 19.1 54 6.5 SSE 13 19 7 10 1007.7 1006.7 0.0
17/01:30pm 28.7 29.2 19.3 56 6.1 SE 15 20 8 11 1008.3 1007.3 0.0
17/01:00pm 27.7 27.4 20.3 64 4.9 SE 22 32 12 17 1008.9 1007.9 0.0
17/12:30pm 28.8 28.9 19.1 55 6.3 NE 17 24 9 13 1009.4 1008.4 0.0
17/12:00pm 29.4 30.4 20.3 58 6.0 NE 15 22 8 12 1009.8 1008.8 0.0
17/11:30am 28.9 30.7 19.5 57 6.2 NE 9 19 5 10 1010.2 1009.3 0.0
17/11:00am 28.3 29.5 19.8 60 5.6 NNE 13 20 7 11 1010.7 1009.7 0.0
17/10:30am 28.2 30.9 20.2 62 5.3 ENE 6 9 3 5 1011.0 1010.0 0.0
17/10:00am 27.2 29.6 20.0 64 4.7 SSW 7 11 4 6 1011.0 1010.0 0.0
17/09:30am 26.6 29.2 20.0 67 4.3 WSW 6 7 3 4 1011.5 1010.5 0.0
17/09:00am 26.5 29.5 20.1 68 4.2 NW 4 9 2 5 1011.5 1010.5 0.0
17/08:30am 26.1 28.6 20.2 70 3.9 WSW 7 17 4 9 1011.5 1010.5 0.0
17/08:00am 24.8 28.3 20.3 76 2.9 ESE 2 6 1 3 1011.0 1010.0 0.0
17/07:30am 23.7 27.2 20.4 82 2.2 S 2 7 1 4 1010.2 1009.3 0.0
17/07:00am 21.6 24.9 19.9 90 1.1 S 2 6 1 3 1009.7 1008.7 0.0
17/06:30am 21.0 24.6 19.7 92 0.8 CALM 0 0 0 0 1009.5 1008.5 0.0
17/06:00am 21.2 24.4 19.7 91 1.0 S 2 6 1 3 1009.1 1008.1 0.0
17/05:30am 21.3 23.8 19.8 91 1.0 SSW 6 9 3 5 1009.0 1008.0 0.0
17/05:00am 21.3 23.8 19.9 92 0.9 S 6 7 3 4 1008.5 1007.5 0.0
17/04:30am 21.3 24.9 19.8 91 1.0 CALM 0 0 0 0 1007.9 1006.9 0.0
17/04:00am 21.3 24.9 19.8 91 1.0 CALM 0 6 0 3 1007.6 1006.6 0.0
17/03:30am 21.4 23.8 20.0 92 0.9 W 7 11 4 6 1007.3 1006.3 0.0
17/03:00am 21.2 24.8 19.7 91 1.0 CALM 0 0 0 0 1007.2 1006.2 0.0
17/02:30am 21.5 25.1 19.8 90 1.1 CALM 0 0 0 0 1007.7 1006.7 0.0
17/02:00am 21.4 23.6 19.7 90 1.1 NE 7 9 4 5 1008.2 1007.2 0.0
17/01:30am 21.8 25.3 19.5 87 1.5 CALM 0 0 0 0 1008.8 1007.8 0.0
17/01:00am 21.9 24.1 19.6 87 1.5 NNW 7 11 4 6 1009.3 1008.3 0.0
17/12:30am 22.6 26.1 19.6 83 1.9 CALM 0 2 0 1 1009.9 1008.9 0.0
17/12:00am 22.8 24.9 19.0 79 2.4 SSW 6 7 3 4 1010.4 1009.5 0.0
 
Date/Time
EST
Temp
°C
App
Temp
°C
Dew
Point
°C
Rel
Hum
%
Delta-T
°C
Wind Press
QNH
hPa
Press
MSL
hPa
Rain since
9am
mm
Dir  Spd
km/h
Gust
km/h
Spd
kts
Gust
kts
16/11:30pm 22.7 26.1 19.3 81 2.2 CALM 0 0 0 0 1010.5 1009.6 0.0
16/11:00pm 22.5 24.4 18.9 80 2.3 S 7 11 4 6 1010.9 1009.9 0.0
16/10:30pm 22.7 23.1 19.1 80 2.3 S 15 20 8 11 1011.0 1010.0 0.0
16/10:00pm 23.2 25.7 20.3 84 1.9 S 7 9 4 5 1011.0 1010.0 0.0
16/09:30pm 22.8 25.4 20.1 85 1.8 ESE 6 9 3 5 1010.3 1009.4 0.0
16/09:00pm 22.5 23.5 19.5 83 1.9 ENE 13 19 7 10 1010.0 1009.0 0.0
16/08:30pm 23.1 23.7 21.0 88 1.4 ESE 19 26 10 14 1009.8 1008.8 0.0
16/08:00pm 25.3 26.9 20.8 76 3.0 SSW 13 20 7 11 1009.5 1008.5 0.0
16/07:30pm 25.6 27.8 21.1 76 3.0 ESE 11 17 6 9 1008.8 1007.8 0.0
16/07:00pm 25.7 27.5 21.1 76 3.1 NE 13 28 7 15 1008.3 1007.3 0.0
16/06:30pm 25.9 27.3 21.1 75 3.2 NNE 15 20 8 11 1007.7 1006.7 0.0
16/06:00pm 26.2 26.8 21.0 73 3.5 NE 19 28 10 15 1007.2 1006.2 0.0
16/05:30pm 26.6 27.9 20.9 71 3.8 ENE 15 26 8 14 1007.2 1006.2 0.0
16/05:00pm 27.0 26.9 20.8 69 4.1 NE 22 33 12 18 1005.8 1004.8 0.0
16/04:30pm 26.7 27.9 21.5 73 3.5 NE 17 24 9 13 1006.1 1005.1 0.0
16/04:00pm 26.7 27.0 20.8 70 3.9 NE 20 33 11 18 1006.0 1005.0 0.0
16/03:30pm 27.9 28.5 20.2 63 5.1 ENE 17 26 9 14 1006.4 1005.4 0.0
16/03:00pm 28.7 28.6 19.6 58 6.0 ENE 19 30 10 16 1006.6 1005.6 0.0
16/02:30pm 28.6 27.5 19.5 58 6.0 ENE 24 35 13 19 1007.1 1006.1 0.0
16/02:00pm 29.6 28.7 19.9 56 6.4 NE 24 35 13 19 1007.6 1006.6 0.0
16/01:30pm 30.6 29.0 19.3 51 7.4 NNE 26 35 14 19 1007.6 1006.6 0.0
16/01:00pm 30.8 29.0 18.8 48 7.8 NE 26 41 14 22 1008.0 1007.0 0.0
16/12:30pm 32.5 32.3 19.7 46 8.5 NE 20 30 11 16 1008.5 1007.5 0.0
16/12:00pm 31.7 31.6 20.0 50 7.8 NE 20 32 11 17 1009.0 1008.0 0.0
16/11:30am 32.2 32.7 20.1 48 8.1 NE 17 26 9 14 1009.4 1008.4 0.0
16/11:00am 30.4 28.9 19.4 51 7.2 NE 26 35 14 19 1009.4 1008.4 0.0
16/10:30am 30.4 29.9 19.1 50 7.4 NE 20 28 11 15 1010.0 1009.0 0.0
16/10:00am 29.5 29.6 19.2 54 6.7 NE 17 26 9 14 1010.2 1009.3 0.0
16/09:30am 29.3 29.1 18.4 51 7.0 NE 17 32 9 17 1009.9 1008.9 0.0
16/09:00am 28.6 28.1 19.0 56 6.2 NNE 20 28 11 15 1009.9 1008.9 0.0
16/08:30am 28.2 29.2 19.4 59 5.7 NNE 13 20 7 11 1010.2 1009.3 0.0
16/08:00am 27.4 29.2 19.5 62 5.2 NNE 9 15 5 8 1010.2 1009.3 0.0
16/07:30am 25.5 27.7 19.6 70 3.8 N 7 9 4 5 1010.2 1009.3 0.0
16/07:00am 24.3 27.8 20.4 79 2.6 W 2 9 1 5 1010.0 1009.0 0.0
16/06:30am 23.3 26.2 21.0 87 1.5 W 7 9 4 5 1009.6 1008.6 0.0
16/06:00am 22.6 25.9 19.9 85 1.7 NE 2 7 1 4 1009.2 1008.2 0.0
16/05:30am 23.4 26.0 20.5 84 1.9 ESE 7 11 4 6 1009.0 1008.0 0.0
16/05:00am 24.2 26.2 20.7 81 2.3 SE 11 17 6 9 1009.2 1008.2 0.0
16/04:30am 24.7 27.9 20.4 77 2.8 S 4 7 2 4 1008.7 1007.7 0.0
16/04:00am 24.7 27.5 20.4 77 2.8 WSW 6 7 3 4 1008.5 1007.5 0.0
16/03:30am 24.8 27.6 20.5 77 2.8 SW 6 6 3 3 1008.4 1007.4 0.0
16/03:00am 24.4 28.4 20.5 79 2.6 CALM 0 0 0 0 1008.1 1007.1 0.0
16/02:30am 24.6 28.6 20.5 78 2.7 CALM 0 0 0 0 1008.4 1007.4 0.0
16/02:00am 24.6 28.6 20.5 78 2.7 CALM 0 0 0 0 1008.6 1007.6 0.0
16/01:30am 24.4 27.0 20.5 79 2.6 SSW 7 9 4 5 1008.8 1007.8 0.0
16/01:00am 24.4 27.2 20.5 79 2.6 S 6 7 3 4 1008.8 1007.8 0.0
16/12:30am 24.5 27.2 20.6 79 2.6 S 7 9 4 5 1009.1 1008.1 0.0
16/12:00am 24.5 28.6 20.8 80 2.4 CALM 0 0 0 0 1009.3 1008.3 0.0
 
Date/Time
EST
Temp
°C
App
Temp
°C
Dew
Point
°C
Rel
Hum
%
Delta-T
°C
Wind Press
QNH
hPa
Press
MSL
hPa
Rain since
9am
mm
Dir  Spd
km/h
Gust
km/h
Spd
kts
Gust
kts
15/11:30pm 24.7 28.9 21.0 80 2.4 CALM 0 0 0 0 1009.3 1008.3 0.0
15/11:00pm 24.4 26.8 20.9 81 2.3 N 9 15 5 8 1008.9 1007.9 0.0
15/10:30pm 24.3 26.0 21.0 82 2.2 NNE 13 17 7 9 1008.3 1007.3 0.0
15/10:00pm 24.3 26.6 20.6 80 2.4 NNE 9 13 5 7 1008.4 1007.4 0.0
15/09:30pm 24.7 26.3 20.8 79 2.6 NNE 13 22 7 12 1008.1 1007.1 0.0
15/09:00pm 24.8 25.5 20.5 77 2.8 NE 17 24 9 13 1007.9 1006.9 0.0
15/08:30pm 25.0 26.1 20.5 76 3.0 NE 15 28 8 15 1007.8 1006.8 0.0
15/08:00pm 25.3 26.6 20.1 73 3.4 NE 13 19 7 10 1007.4 1006.4 0.0
15/07:30pm 25.9 26.8 20.0 70 3.9 NE 15 22 8 12 1007.4 1006.4 0.0
15/07:00pm 26.4 27.0 19.5 66 4.5 NE 15 22 8 12 1007.0 1006.0 0.0
15/06:30pm 27.3 27.7 18.9 60 5.4 NE 15 22 8 12 1006.3 1005.3 0.0
15/06:00pm 28.5 27.7 18.0 53 6.7 NE 19 32 10 17 1005.8 1004.8 0.0
15/05:30pm 29.4 28.2 17.6 49 7.5 NE 20 33 11 18 1005.4 1004.4 0.0
15/05:00pm 30.2 28.5 17.3 46 8.2 NE 22 33 12 18 1005.4 1004.4 0.0
15/04:30pm 31.2 29.4 17.9 45 8.6 NE 24 37 13 20 1005.6 1004.6 0.0
15/04:00pm 31.5 30.3 17.4 43 9.1 NE 20 30 11 16 1005.5 1004.5 0.0
15/03:30pm 32.0 29.9 17.1 41 9.5 NNE 24 35 13 19 1005.4 1004.4 0.0
15/03:00pm 32.8 32.0 17.0 38 10.1 NE 17 28 9 15 1005.8 1004.8 0.0
15/02:30pm 33.0 32.6 18.0 41 9.7 NE 17 26 9 14 1006.2 1005.2 0.0
15/02:00pm 32.2 30.9 16.9 40 9.8 NE 19 30 10 16 1006.5 1005.5 0.0
15/01:30pm 33.0 31.1 17.6 40 9.9 NE 24 41 13 22 1006.9 1005.9 0.0
15/01:00pm 33.1 31.3 16.9 38 10.4 NNE 22 37 12 20 1007.2 1006.2 0.0
15/12:30pm 32.8 32.1 17.4 39 9.9 ENE 17 26 9 14 1007.9 1006.9 0.0
15/12:00pm 32.4 32.2 18.6 44 9.0 ENE 17 26 9 14 1008.7 1007.7 0.0
15/11:30am 32.8 32.2 18.9 43 9.1 NE 20 28 11 15 1009.1 1008.1 0.0
15/11:00am 30.9 30.2 18.6 48 8.0 NE 20 30 11 16 1009.4 1008.4 0.0
15/10:30am 30.4 30.2 18.5 49 7.7 E 17 30 9 16 1009.8 1008.8 0.0
15/10:00am 29.3 29.2 18.7 52 6.9 NE 17 26 9 14 1010.2 1009.3 0.0
15/09:30am 29.1 29.5 19.1 54 6.5 ENE 15 24 8 13 1010.4 1009.5 0.0
15/09:00am 27.5 27.4 19.6 62 5.2 NE 19 30 10 16 1010.3 1009.4 0.0
15/08:30am 28.4 28.8 19.9 60 5.6 NE 17 24 9 13 1010.1 1009.2 0.0
15/08:00am 27.1 29.0 19.7 64 4.8 E 9 17 5 9 1010.0 1009.0 0.0
15/07:30am 25.5 27.9 20.1 72 3.5 ENE 7 13 4 7 1009.7 1008.7 0.0
15/07:00am 23.5 26.9 20.2 82 2.2 NNE 2 6 1 3 1009.2 1008.2 0.0
15/06:30am 21.2 24.2 19.3 89 1.2 N 2 7 1 4 1008.9 1007.9 0.0
15/06:00am 20.7 23.8 18.6 88 1.3 CALM 0 0 0 0 1008.9 1007.9 0.0
15/05:30am 21.1 24.3 18.9 87 1.4 CALM 0 0 0 0 1009.0 1008.0 0.0
15/05:00am 21.5 24.7 18.9 85 1.7 CALM 0 0 0 0 1008.4 1007.4 0.0
15/04:30am 22.2 24.7 19.0 82 2.0 NE 4 7 2 4 1008.2 1007.2 0.0
15/04:00am 22.9 25.1 19.1 79 2.4 E 6 6 3 3 1008.2 1007.2 0.0
15/03:30am 23.9 27.4 19.6 77 2.8 CALM 0 0 0 0 1008.2 1007.2 0.0
15/03:00am 23.9 27.1 19.8 78 2.7 SSE 2 7 1 4 1008.2 1007.2 0.0
15/02:30am 23.6 27.2 19.7 79 2.5 CALM 0 0 0 0 1008.4 1007.4 0.0
15/02:00am 23.2 26.6 19.4 79 2.4 CALM 0 0 0 0 1008.5 1007.5 0.0
15/01:30am 23.4 25.9 19.8 80 2.3 NW 6 9 3 5 1008.9 1007.9 0.0
15/01:00am 23.2 26.7 19.6 80 2.3 CALM 0 0 0 0 1009.1 1008.1 0.0
15/12:30am 23.2 26.3 19.6 80 2.3 NNW 2 6 1 3 1009.2 1008.2 0.0
15/12:00am 23.5 25.7 19.2 77 2.8 ESE 6 7 3 4 1009.2 1008.2 0.0
 
Date/Time
EST
Temp
°C
App
Temp
°C
Dew
Point
°C
Rel
Hum
%
Delta-T
°C
Wind Press
QNH
hPa
Press
MSL
hPa
Rain since
9am
mm
Dir  Spd
km/h
Gust
km/h
Spd
kts
Gust
kts
14/11:30pm 24.3 26.6 19.8 76 2.9 ENE 7 13 4 7 1009.5 1008.5 0.0
14/11:00pm 24.6 25.8 19.9 75 3.1 NE 13 19 7 10 1009.5 1008.5 0.0
14/10:30pm 24.7 25.7 20.2 76 2.9 NE 15 24 8 13 1009.1 1008.1 0.0
14/10:00pm 24.7 25.9 19.8 74 3.2 NE 13 20 7 11 1009.1 1008.1 0.0
14/09:30pm 24.7 25.6 20.0 75 3.1 NE 15 24 8 13 1009.1 1008.1 0.0
14/09:00pm 24.8 26.1 20.1 75 3.1 NE 13 22 7 12 1009.0 1008.0 0.0
14/08:30pm 24.9 25.3 19.9 74 3.3 NNE 17 24 9 13 1008.8 1007.8 0.0
14/08:00pm 25.2 25.9 19.6 71 3.6 NE 15 22 8 12 1008.6 1007.6 0.0
14/07:30pm 25.6 25.8 19.3 68 4.1 NE 17 26 9 14 1008.4 1007.4 0.0
14/07:00pm 26.5 27.0 18.4 61 5.2 NE 13 24 7 13 1008.1 1007.1 0.0
14/06:30pm 27.4 26.4 17.6 55 6.2 NE 19 28 10 15 1007.7 1006.7 0.0
14/06:00pm 28.4 27.4 17.9 53 6.7 NE 20 28 11 15 1007.4 1006.4 0.0

Other Formats:

Comma delimited format used in spreadsheet applications
http://www.bom.gov.au/fwo/IDQ60801/IDQ60801.94183.axf

JavaScript Object Notation format (JSON) in row-major order
http://www.bom.gov.au/fwo/IDQ60801/IDQ60801.94183.json